createdAt,value
2019-05-11T00:02:15.281Z,77.26
2019-05-11T00:04:43.725Z,76.89
2019-05-11T00:07:12.511Z,77.19
2019-05-11T00:09:55.678Z,77.70
2019-05-11T00:12:11.101Z,77.54
2019-05-11T00:14:39.505Z,77.46
2019-05-11T00:17:07.920Z,77.49
2019-05-11T00:19:36.375Z,77.42
2019-05-11T00:22:04.794Z,77.64
2019-05-11T00:24:33.226Z,77.80
2019-05-11T00:27:01.631Z,78.04
2019-05-11T00:29:30.257Z,78.09
2019-05-11T00:31:58.738Z,76.75
2019-05-11T00:34:27.251Z,76.75
2019-05-11T00:36:56.715Z,76.85
2019-05-11T00:39:28.148Z,76.85
2019-05-11T00:41:56.618Z,76.38
2019-05-11T00:44:25.051Z,75.84
2019-05-11T00:46:55.569Z,76.62
2019-05-11T00:49:25.058Z,76.68
2019-05-11T00:51:53.781Z,77.12
2019-05-11T00:54:22.229Z,76.78
2019-05-11T00:56:52.785Z,77.09
2019-05-11T00:59:23.704Z,77.19
2019-05-11T01:01:52.143Z,77.38
2019-05-11T01:04:20.611Z,77.04
2019-05-11T01:06:49.050Z,77.05
2019-05-11T01:09:19.331Z,77.08
2019-05-11T01:11:47.734Z,76.99
2019-05-11T01:14:16.136Z,77.25
2019-05-11T01:16:45.044Z,77.22
2019-05-11T01:19:14.523Z,77.74
2019-05-11T01:21:42.965Z,78.16
2019-05-11T01:24:11.381Z,78.27
2019-05-11T01:26:40.958Z,78.21
2019-05-11T01:29:10.478Z,78.42
2019-05-11T01:31:38.918Z,78.32
2019-05-11T01:34:07.339Z,78.22
2019-05-11T01:36:35.734Z,78.20
2019-05-11T01:39:06.042Z,78.32
2019-05-11T01:41:34.475Z,78.41
2019-05-11T01:44:02.930Z,78.44
2019-05-11T01:46:31.341Z,78.34
2019-05-11T01:48:59.778Z,78.34
2019-05-11T01:51:29.258Z,78.07
2019-05-11T01:53:57.730Z,76.72
2019-05-11T01:56:26.157Z,76.60
2019-05-11T01:58:54.634Z,77.02
2019-05-11T02:01:23.067Z,77.02
2019-05-11T02:03:51.522Z,77.11
2019-05-11T02:06:19.943Z,77.36
2019-05-11T02:08:48.380Z,78.03
2019-05-11T02:11:16.865Z,78.03
2019-05-11T02:13:45.271Z,77.97
2019-05-11T02:16:13.715Z,78.04
2019-05-11T02:18:43.238Z,78.06
2019-05-11T02:21:15.646Z,77.26
2019-05-11T02:23:43.345Z,77.26
2019-05-11T02:26:11.712Z,77.00
2019-05-11T02:28:41.761Z,76.90
2019-05-11T02:31:10.147Z,77.32
2019-05-11T02:33:38.548Z,77.10
2019-05-11T02:36:06.982Z,76.68
2019-05-11T02:38:35.415Z,77.08
2019-05-11T02:41:03.840Z,77.76
2019-05-11T02:43:32.266Z,78.42
2019-05-11T02:46:00.700Z,78.49
2019-05-11T02:48:29.322Z,78.32
2019-05-11T02:51:00.367Z,78.32
2019-05-11T02:53:32.891Z,79.01
2019-05-11T02:56:02.026Z,79.01
2019-05-11T02:58:31.450Z,79.21
2019-05-11T03:01:03.401Z,79.10
2019-05-11T03:03:31.882Z,79.00
2019-05-11T03:06:00.301Z,79.04
2019-05-11T03:08:31.226Z,78.83
2019-05-11T03:10:59.634Z,78.68
2019-05-11T03:13:30.746Z,77.80
2019-05-11T03:16:03.163Z,77.80
2019-05-11T03:18:35.412Z,78.34
2019-05-11T03:21:03.929Z,77.83
2019-05-11T03:23:34.160Z,78.15
2019-05-11T03:26:06.362Z,77.14
2019-05-11T03:28:34.778Z,76.82
2019-05-11T03:31:04.029Z,76.54
2019-05-11T03:33:32.487Z,75.77
2019-05-11T03:36:00.909Z,75.77
2019-05-11T03:38:31.814Z,76.09
2019-05-11T03:41:00.246Z,76.82
2019-05-11T03:43:28.653Z,77.47
2019-05-11T03:45:57.098Z,78.25
2019-05-11T03:48:25.510Z,78.06
2019-05-11T03:50:53.955Z,78.08
2019-05-11T03:53:23.482Z,77.99
2019-05-11T03:55:51.907Z,78.53
2019-05-11T03:58:25.208Z,78.31
2019-05-11T04:00:50.501Z,78.31
2019-05-11T04:03:18.903Z,78.59
2019-05-11T04:05:47.335Z,78.34
2019-05-11T04:08:15.746Z,78.03
2019-05-11T04:10:46.593Z,78.03
2019-05-11T04:13:15.052Z,78.09
2019-05-11T04:15:44.501Z,78.09
2019-05-11T04:18:16.828Z,77.58
2019-05-11T04:20:45.333Z,77.46
2019-05-11T04:23:18.849Z,77.23
2019-05-11T04:25:47.245Z,77.23
2019-05-11T04:28:19.352Z,76.99
2019-05-11T04:30:47.778Z,77.07
2019-05-11T04:33:16.452Z,76.80
2019-05-11T04:35:45.050Z,76.40
2019-05-11T04:38:13.851Z,76.09
2019-05-11T04:40:44.895Z,75.93
2019-05-11T04:43:13.615Z,76.18
2019-05-11T04:45:42.094Z,76.79
2019-05-11T04:48:10.631Z,76.33
2019-05-11T04:50:41.620Z,76.30
2019-05-11T04:53:10.267Z,75.81
2019-05-11T04:55:38.946Z,75.59
2019-05-11T04:58:07.535Z,75.66
2019-05-11T05:00:36.232Z,75.48
2019-05-11T05:03:04.922Z,75.31
2019-05-11T05:05:33.588Z,74.86
2019-05-11T05:08:09.565Z,75.19
2019-05-11T05:10:32.649Z,75.12
2019-05-11T05:13:10.088Z,75.15
2019-05-11T05:15:31.743Z,74.95
2019-05-11T05:18:00.283Z,75.42
2019-05-11T05:20:28.870Z,74.87
2019-05-11T05:22:57.347Z,74.34
2019-05-11T05:25:25.924Z,73.74
2019-05-11T05:27:54.518Z,73.61
2019-05-11T05:30:24.125Z,72.93
2019-05-11T05:32:52.661Z,72.18
2019-05-11T05:35:21.117Z,72.03
2019-05-11T05:37:49.886Z,70.51
2019-05-11T05:40:18.875Z,69.77
2019-05-11T05:42:48.525Z,68.10
2019-05-11T05:45:17.371Z,67.73
2019-05-11T05:47:46.048Z,66.66
2019-05-11T05:50:15.904Z,65.50
2019-05-11T05:52:44.624Z,65.61
2019-05-11T05:55:14.742Z,65.35
2019-05-11T05:57:45.069Z,64.06
2019-05-11T06:00:14.279Z,62.73
2019-05-11T06:02:42.867Z,58.97
2019-05-11T06:05:11.817Z,55.97
2019-05-11T06:07:42.185Z,52.84
2019-05-11T06:10:11.345Z,54.45
2019-05-11T06:12:41.067Z,56.32
2019-05-11T06:15:10.287Z,55.03
2019-05-11T06:17:49.649Z,57.76
2019-05-11T06:20:21.011Z,56.46
2019-05-11T06:22:49.237Z,54.78
2019-05-11T06:25:18.645Z,49.76
2019-05-11T06:27:47.504Z,49.38
2019-05-11T06:30:17.552Z,46.97
2019-05-11T06:32:45.964Z,43.03
2019-05-11T06:35:15.714Z,38.86
2019-05-11T06:37:44.151Z,37.57
2019-05-11T06:40:13.399Z,33.54
2019-05-11T06:42:42.307Z,32.45
2019-05-11T06:45:14.212Z,31.71
2019-05-11T06:47:42.803Z,31.66
2019-05-11T06:50:11.942Z,29.81
2019-05-11T06:52:40.406Z,30.90
2019-05-11T06:55:10.130Z,32.83
2019-05-11T06:57:38.540Z,34.53
2019-05-11T07:00:08.792Z,33.12
2019-05-11T07:02:37.331Z,35.64
2019-05-11T07:05:08.956Z,38.97
2019-05-11T07:07:47.037Z,38.90
2019-05-11T07:10:09.726Z,37.97
2019-05-11T07:12:38.121Z,36.53
2019-05-11T07:15:07.399Z,36.27
2019-05-11T07:17:35.821Z,33.12
2019-05-11T07:20:06.272Z,36.06
2019-05-11T07:22:34.714Z,33.76
2019-05-11T07:25:03.623Z,32.01
2019-05-11T07:27:32.038Z,31.22
2019-05-11T07:30:00.453Z,29.14
2019-05-11T07:32:29.421Z,30.05
2019-05-11T07:34:57.918Z,30.20
2019-05-11T07:37:28.048Z,35.43
2019-05-11T07:39:58.040Z,39.61
2019-05-11T07:42:28.616Z,40.17
2019-05-11T07:44:58.274Z,42.43
2019-05-11T07:47:27.824Z,44.70
2019-05-11T07:49:57.921Z,37.89
2019-05-11T07:52:28.577Z,34.90
2019-05-11T07:54:58.044Z,34.40
2019-05-11T07:57:29.088Z,30.96
2019-05-11T07:59:57.941Z,29.90
2019-05-11T08:02:28.527Z,32.46
2019-05-11T08:04:58.750Z,30.78
2019-05-11T08:07:28.513Z,29.31
2019-05-11T08:09:58.742Z,28.31
2019-05-11T08:12:29.902Z,28.35
2019-05-11T08:15:08.038Z,27.09
2019-05-11T08:17:37.942Z,28.51
2019-05-11T08:20:04.290Z,33.31
2019-05-11T08:22:32.717Z,34.11
2019-05-11T08:25:01.333Z,32.65
2019-05-11T08:27:29.762Z,34.64
2019-05-11T08:29:58.346Z,36.41
2019-05-11T08:32:28.610Z,38.14
2019-05-11T08:34:58.042Z,36.06
2019-05-11T08:37:30.424Z,35.33
2019-05-11T08:40:01.657Z,36.62
2019-05-11T08:42:30.194Z,40.77
2019-05-11T08:45:16.170Z,39.31
2019-05-11T08:47:31.364Z,38.84
2019-05-11T08:50:00.921Z,41.25
2019-05-11T08:52:29.325Z,37.52
2019-05-11T08:54:57.968Z,42.52
2019-05-11T08:57:28.937Z,42.04
2019-05-11T08:59:59.976Z,45.33
2019-05-11T09:02:28.387Z,40.88
2019-05-11T09:04:58.896Z,43.57
2019-05-11T09:07:34.302Z,41.78
2019-05-11T09:10:02.720Z,43.25
2019-05-11T09:12:31.208Z,43.50
2019-05-11T09:15:02.470Z,41.28
2019-05-11T09:17:30.970Z,45.99
2019-05-11T09:19:59.385Z,45.30
2019-05-11T09:22:28.496Z,44.89
2019-05-11T09:24:58.254Z,45.20
2019-05-11T09:27:28.632Z,40.45
2019-05-11T09:29:58.830Z,44.59
2019-05-11T09:32:28.493Z,44.04
2019-05-11T09:34:57.977Z,46.25
2019-05-11T09:37:27.731Z,47.35
2019-05-11T09:39:58.326Z,45.51
2019-05-11T09:42:28.605Z,45.61
2019-05-11T09:44:58.224Z,43.97
2019-05-11T09:47:27.915Z,43.93
2019-05-11T09:49:58.216Z,43.50
2019-05-11T09:52:32.073Z,41.24
2019-05-11T09:54:58.712Z,45.00
2019-05-11T09:57:30.221Z,43.59
2019-05-11T09:59:58.816Z,43.63
2019-05-11T10:02:28.001Z,45.42
2019-05-11T10:04:57.852Z,43.45
2019-05-11T10:07:32.448Z,41.07
2019-05-11T10:09:59.314Z,37.87
2019-05-11T10:12:29.647Z,42.22
2019-05-11T10:14:59.133Z,44.57
2019-05-11T10:17:30.774Z,43.70
2019-05-11T10:19:59.241Z,45.69
2019-05-11T10:22:30.083Z,44.94
2019-05-11T10:24:58.892Z,43.33
2019-05-11T10:27:28.032Z,41.78
2019-05-11T10:29:58.781Z,40.75
2019-05-11T10:32:30.341Z,42.16
2019-05-11T10:34:58.829Z,39.47
2019-05-11T10:37:28.306Z,38.25
2019-05-11T10:39:57.764Z,38.45
2019-05-11T10:42:28.392Z,41.14
2019-05-11T10:44:59.254Z,41.75
2019-05-11T10:47:30.149Z,45.11
2019-05-11T10:50:02.788Z,41.01
2019-05-11T10:52:31.454Z,38.82
2019-05-11T10:55:02.442Z,39.46
2019-05-11T10:57:30.859Z,39.78
2019-05-11T10:59:59.443Z,42.38
2019-05-11T11:02:28.103Z,40.42
2019-05-11T11:04:58.712Z,35.39
2019-05-11T11:07:38.800Z,38.80
2019-05-11T11:10:13.509Z,38.82
2019-05-11T11:12:57.793Z,44.06
2019-05-11T11:15:28.881Z,41.00
2019-05-11T11:17:57.921Z,40.53
2019-05-11T11:20:31.568Z,42.66
2019-05-11T11:23:02.302Z,36.82
2019-05-11T11:25:30.432Z,42.31
2019-05-11T11:27:58.893Z,42.61
2019-05-11T11:30:28.551Z,42.22
2019-05-11T11:32:58.851Z,40.60
2019-05-11T11:35:27.956Z,37.81
2019-05-11T11:37:59.083Z,39.26
2019-05-11T11:40:28.148Z,41.52
2019-05-11T11:42:58.064Z,42.29
2019-05-11T11:45:28.848Z,37.92
2019-05-11T11:47:59.424Z,39.63
2019-05-11T11:50:28.917Z,40.51
2019-05-11T11:52:57.856Z,42.16
2019-05-11T11:55:28.794Z,38.36
2019-05-11T11:57:59.337Z,34.81
2019-05-11T12:00:28.789Z,37.46
2019-05-11T12:02:58.112Z,34.34
2019-05-11T12:05:28.387Z,37.77
2019-05-11T12:08:00.809Z,39.34
2019-05-11T12:10:29.202Z,36.93
2019-05-11T12:12:58.200Z,38.35
2019-05-11T12:15:28.971Z,35.39
2019-05-11T12:17:58.734Z,33.69
2019-05-11T12:20:28.677Z,34.88
2019-05-11T12:22:59.025Z,41.02
2019-05-11T12:25:27.976Z,36.41
2019-05-11T12:27:57.847Z,37.09
2019-05-11T12:30:30.116Z,39.23
2019-05-11T12:32:58.526Z,40.83
2019-05-11T12:35:28.430Z,36.01
2019-05-11T12:37:58.766Z,38.06
2019-05-11T12:40:28.213Z,36.85
2019-05-11T12:42:59.049Z,36.60
2019-05-11T12:45:29.359Z,36.42
2019-05-11T12:47:58.650Z,37.05
2019-05-11T12:50:28.651Z,37.18
2019-05-11T12:52:58.868Z,37.42
2019-05-11T12:55:33.955Z,39.74
2019-05-11T12:58:02.407Z,41.86
2019-05-11T13:00:31.575Z,41.33
2019-05-11T13:03:00.537Z,43.39
2019-05-11T13:05:29.021Z,36.51
2019-05-11T13:07:58.670Z,40.69
2019-05-11T13:10:28.651Z,40.36
2019-05-11T13:12:58.993Z,43.67
2019-05-11T13:15:28.226Z,38.89
2019-05-11T13:17:58.096Z,41.46
2019-05-11T13:20:28.510Z,37.14
2019-05-11T13:22:58.712Z,37.36
2019-05-11T13:25:28.244Z,41.70
2019-05-11T13:27:58.116Z,35.09
2019-05-11T13:30:27.826Z,38.06
2019-05-11T13:32:57.923Z,37.08
2019-05-11T13:35:29.609Z,35.70
2019-05-11T13:37:58.561Z,37.25
2019-05-11T13:40:27.794Z,36.91
2019-05-11T13:42:58.129Z,35.42
2019-05-11T13:45:28.263Z,35.84
2019-05-11T13:47:59.239Z,34.95
2019-05-11T13:50:29.646Z,35.25
2019-05-11T13:52:58.532Z,38.01
2019-05-11T13:55:28.547Z,37.10
2019-05-11T13:57:57.823Z,34.62
2019-05-11T14:00:28.649Z,35.58
2019-05-11T14:02:58.608Z,35.30
2019-05-11T14:05:28.505Z,36.19
2019-05-11T14:07:58.733Z,37.68
2019-05-11T14:10:28.205Z,35.60
2019-05-11T14:13:09.387Z,37.09
2019-05-11T14:15:30.770Z,35.68
2019-05-11T14:19:03.954Z,35.61
2019-05-11T14:20:58.632Z,39.63
2019-05-11T14:23:31.596Z,34.73
2019-05-11T14:26:00.345Z,34.10
2019-05-11T14:28:29.016Z,38.73
2019-05-11T14:30:57.924Z,37.31
2019-05-11T14:33:28.254Z,39.11
2019-05-11T14:35:57.996Z,38.39
2019-05-11T14:38:30.225Z,42.14
2019-05-11T14:41:02.054Z,38.36
2019-05-11T14:43:30.469Z,38.27
2019-05-11T14:45:58.979Z,38.49
2019-05-11T14:48:30.073Z,40.14
2019-05-11T14:50:59.361Z,36.26
2019-05-11T14:53:31.033Z,37.93
2019-05-11T14:56:02.049Z,35.76
2019-05-11T14:58:31.568Z,38.28
2019-05-11T15:01:02.551Z,37.47
2019-05-11T15:03:33.517Z,33.88
2019-05-11T15:06:05.538Z,36.87
2019-05-11T15:08:33.967Z,38.73
2019-05-11T15:11:08.120Z,35.16
2019-05-11T15:13:38.270Z,36.46
2019-05-11T15:16:08.107Z,35.05
2019-05-11T15:18:41.751Z,35.99
2019-05-11T15:21:08.228Z,35.54
2019-05-11T15:23:40.755Z,33.76
2019-05-11T15:26:10.024Z,34.29
2019-05-11T15:28:39.206Z,35.92
2019-05-11T15:31:08.694Z,39.41
2019-05-11T15:33:41.302Z,39.01
2019-05-11T15:36:09.990Z,36.72
2019-05-11T15:38:38.545Z,35.68
2019-05-11T15:41:08.327Z,36.80
2019-05-11T15:43:40.961Z,38.34
2019-05-11T15:46:19.672Z,34.89
2019-05-11T15:48:58.852Z,35.12
2019-05-11T15:51:24.436Z,36.24
2019-05-11T15:53:53.203Z,37.38
2019-05-11T15:56:23.884Z,36.01
2019-05-11T15:58:52.141Z,36.27
2019-05-11T16:01:20.584Z,37.72
2019-05-11T16:03:52.757Z,33.85
2019-05-11T16:06:21.486Z,38.75
2019-05-11T16:08:50.010Z,38.42
2019-05-11T16:11:20.974Z,40.29
2019-05-11T16:13:49.451Z,37.77
2019-05-11T16:16:22.017Z,37.01
2019-05-11T16:18:50.734Z,37.34
2019-05-11T16:21:22.032Z,35.57
2019-05-11T16:23:54.150Z,33.54
2019-05-11T16:26:22.553Z,32.65
2019-05-11T16:28:51.785Z,37.00
2019-05-11T16:31:20.151Z,34.66
2019-05-11T16:33:48.898Z,36.26
2019-05-11T16:36:18.196Z,32.44
2019-05-11T16:38:48.364Z,34.57
2019-05-11T16:41:21.086Z,32.36
2019-05-11T16:43:48.605Z,36.54
2019-05-11T16:46:17.725Z,36.36
2019-05-11T16:48:46.387Z,34.81
2019-05-11T16:51:14.859Z,34.64
2019-05-11T16:53:43.469Z,36.75
2019-05-11T16:56:14.740Z,36.93
2019-05-11T16:58:43.196Z,34.65
2019-05-11T17:01:11.637Z,32.50
2019-05-11T17:03:48.195Z,33.17
2019-05-11T17:06:15.751Z,34.03
2019-05-11T17:08:44.647Z,37.05
2019-05-11T17:11:13.154Z,35.11
2019-05-11T17:13:41.912Z,37.33
2019-05-11T17:16:10.320Z,35.66
2019-05-11T17:18:40.561Z,35.48
2019-05-11T17:21:12.517Z,36.30
2019-05-11T17:23:48.729Z,37.88
2019-05-11T17:26:19.061Z,36.63
2019-05-11T17:28:50.151Z,38.94
2019-05-11T17:31:19.040Z,38.51
2019-05-11T17:33:47.843Z,38.58
2019-05-11T17:36:18.648Z,39.11
2019-05-11T17:38:48.112Z,40.23
2019-05-11T17:41:16.516Z,39.39
2019-05-11T17:43:47.966Z,39.12
2019-05-11T17:46:18.423Z,40.61
2019-05-11T17:48:46.951Z,41.70
2019-05-11T17:51:21.236Z,41.00
2019-05-11T17:53:45.516Z,41.18
2019-05-11T17:56:14.113Z,43.31
2019-05-11T17:58:42.520Z,42.41
2019-05-11T18:01:10.974Z,44.09
2019-05-11T18:03:39.377Z,44.03
2019-05-11T18:06:10.243Z,44.86
2019-05-11T18:08:38.662Z,45.32
2019-05-11T18:11:08.370Z,45.25
2019-05-11T18:13:38.954Z,45.82
2019-05-11T18:16:08.504Z,46.12
2019-05-11T18:18:37.819Z,47.88
2019-05-11T18:21:08.508Z,48.44
2019-05-11T18:23:38.642Z,48.90
2019-05-11T18:26:08.622Z,49.38
2019-05-11T18:28:37.976Z,49.37
2019-05-11T18:31:06.427Z,49.63
2019-05-11T18:33:34.917Z,49.83
2019-05-11T18:36:03.314Z,48.95
2019-05-11T18:38:31.948Z,49.06
2019-05-11T18:41:00.362Z,49.47
2019-05-11T18:43:30.721Z,49.39
2019-05-11T18:45:59.188Z,49.20
2019-05-11T18:48:30.312Z,49.45
2019-05-11T18:50:59.315Z,50.00
2019-05-11T18:53:28.847Z,49.97
2019-05-11T18:55:59.005Z,51.33
2019-05-11T18:58:27.937Z,50.43
2019-05-11T19:00:56.584Z,50.58
2019-05-11T19:03:24.982Z,51.01
2019-05-11T19:05:53.448Z,51.81
2019-05-11T19:08:21.824Z,52.83
2019-05-11T19:10:50.256Z,54.01
2019-05-11T19:13:19.772Z,55.46
2019-05-11T19:15:48.858Z,55.88
2019-05-11T19:18:17.400Z,56.62
2019-05-11T19:20:49.103Z,56.77
2019-05-11T19:23:19.309Z,56.12
2019-05-11T19:25:48.021Z,55.21
2019-05-11T19:28:19.072Z,55.49
2019-05-11T19:30:48.825Z,55.33
2019-05-11T19:33:18.988Z,53.99
2019-05-11T19:35:48.236Z,53.60
2019-05-11T19:38:18.749Z,55.09
2019-05-11T19:40:48.436Z,54.71
2019-05-11T19:43:18.505Z,56.24
2019-05-11T19:45:48.655Z,56.25
2019-05-11T19:48:18.066Z,56.42
2019-05-11T19:51:00.904Z,56.08
2019-05-11T19:53:18.777Z,55.31
2019-05-11T19:55:48.238Z,56.10
2019-05-11T19:58:19.118Z,56.01
2019-05-11T20:00:48.820Z,56.74
2019-05-11T20:03:20.591Z,57.57
2019-05-11T20:05:49.095Z,57.16
2019-05-11T20:08:18.473Z,57.60
2019-05-11T20:10:48.678Z,57.58
2019-05-11T20:13:20.894Z,57.46
2019-05-11T20:15:52.087Z,57.71
2019-05-11T20:18:20.493Z,57.07
2019-05-11T20:20:48.906Z,57.76
2019-05-11T20:23:17.312Z,57.80
2019-05-11T20:25:47.780Z,57.83
2019-05-11T20:28:18.122Z,58.75
2019-05-11T20:30:48.105Z,59.23
2019-05-11T20:33:18.729Z,59.41
2019-05-11T20:35:48.901Z,59.63
2019-05-11T20:38:18.768Z,59.69
2019-05-11T20:40:48.491Z,59.68
2019-05-11T20:43:18.538Z,59.79
2019-05-11T20:45:48.709Z,60.54
2019-05-11T20:48:18.500Z,60.33
2019-05-11T20:50:48.342Z,60.66
2019-05-11T20:53:18.224Z,60.92
2019-05-11T20:55:47.828Z,61.06
2019-05-11T20:58:18.947Z,61.17
2019-05-11T21:00:49.093Z,61.02
2019-05-11T21:03:17.717Z,61.23
2019-05-11T21:05:48.117Z,61.95
2019-05-11T21:08:17.760Z,61.97
2019-05-11T21:10:48.822Z,62.53
2019-05-11T21:13:17.937Z,62.27
2019-05-11T21:15:47.948Z,62.37
2019-05-11T21:18:18.501Z,62.75
2019-05-11T21:20:48.378Z,63.26
2019-05-11T21:23:18.657Z,63.20
2019-05-11T21:25:48.058Z,63.08
2019-05-11T21:28:16.526Z,62.90
2019-05-11T21:30:48.074Z,63.49
2019-05-11T21:33:17.920Z,63.49
2019-05-11T21:35:48.771Z,63.25
2019-05-11T21:38:17.754Z,63.68
2019-05-11T21:40:48.411Z,63.81
2019-05-11T21:43:16.453Z,64.09
2019-05-11T21:45:48.207Z,63.37
2019-05-11T21:48:16.668Z,63.53
2019-05-11T21:50:45.085Z,63.85
2019-05-11T21:53:18.300Z,63.86
2019-05-11T21:55:48.019Z,63.71
2019-05-11T21:58:18.241Z,64.28
2019-05-11T22:00:50.351Z,63.93
2019-05-11T22:03:20.089Z,64.07
2019-05-11T22:05:48.588Z,63.98
2019-05-11T22:08:17.942Z,64.20
2019-05-11T22:10:46.404Z,63.91
2019-05-11T22:13:14.820Z,64.02
2019-05-11T22:15:43.240Z,64.31
2019-05-11T22:18:11.646Z,64.14
2019-05-11T22:20:40.929Z,64.32
2019-05-11T22:23:09.856Z,64.55
2019-05-11T22:25:39.287Z,64.68
2019-05-11T22:28:08.446Z,64.88
2019-05-11T22:30:39.082Z,64.70
2019-05-11T22:33:08.855Z,64.91
2019-05-11T22:35:37.886Z,65.58
2019-05-11T22:38:08.573Z,65.88
2019-05-11T22:40:38.336Z,65.74
2019-05-11T22:43:09.963Z,65.78
2019-05-11T22:45:42.245Z,65.64
2019-05-11T22:48:10.641Z,65.83
2019-05-11T22:50:39.809Z,66.51
2019-05-11T22:53:11.665Z,66.25
2019-05-11T22:55:39.050Z,66.78
2019-05-11T22:58:08.447Z,66.42
2019-05-11T23:00:43.624Z,66.71
2019-05-11T23:03:12.190Z,66.63
2019-05-11T23:05:41.928Z,66.68
2019-05-11T23:08:10.873Z,66.79
2019-05-11T23:10:39.294Z,66.96
2019-05-11T23:13:11.145Z,66.79
2019-05-11T23:15:40.293Z,66.22
2019-05-11T23:18:10.149Z,66.88
2019-05-11T23:20:38.913Z,67.13
2019-05-11T23:23:10.001Z,67.24
2019-05-11T23:25:38.414Z,67.45
2019-05-11T23:28:06.823Z,67.72
2019-05-11T23:30:35.251Z,67.91
2019-05-11T23:33:03.660Z,67.40
2019-05-11T23:35:32.054Z,68.02
2019-05-11T23:38:00.500Z,67.98
2019-05-11T23:40:28.917Z,68.05
2019-05-11T23:42:57.861Z,67.93
2019-05-11T23:45:27.986Z,68.47
2019-05-11T23:47:58.644Z,68.94
2019-05-11T23:50:28.191Z,69.05
2019-05-11T23:53:06.038Z,68.76
2019-05-11T23:55:28.917Z,68.84
2019-05-11T23:57:57.790Z,69.16
